General Aviation Weather

Text Reports

Enter one or more of the following location identifiers separated by a space:

Zip Code, Four-Character ICAO or Three-Character IATA airport codes.

METAR - Aviation Routine Weather Report
PAIK - Kiana, Alaska
Updated at 5:01 AM GMT op 26 oktober 2014 (9:01 PM AKDT):
METAR PAIK 260501Z AUTO 10006KT 4SM -SN BR OVC013 M02/M02 A2961 RMK AO2 SLP070 P0000 T10171022 FZRANO
TAF - Terminal Area Forecast
PAIK - Kiana, Alaska
Updated at 5:01 AM GMT op 26 oktober 2014 (9:01 PM AKDT):
No TAF is currently available for this location.
Decoded:
No decoded TAF is available.
PIREP - Pilot Weather Report
PAIK - Kiana, Alaska
Updated at 5:01 AM GMT op 26 oktober 2014 (9:01 PM AKDT):
No PIREP is currently available for this location.
AIRMET - Airmens Meteorological Information
PAIK - Kiana, Alaska
Updated at 5:01 AM GMT op 26 oktober 2014 (9:01 PM AKDT):
No AIRMET is currently available for this location.
SIGMET - Significant Meteorological Information
PAIK - Kiana, Alaska
Updated at 5:01 AM GMT op 26 oktober 2014 (9:01 PM AKDT):
No SIGMET is currently available for this location.
NOTAM - Notice to Airmen
PAIK - Kiana, Alaska
Updated at 5:01 AM GMT op 26 oktober 2014 (9:01 PM AKDT):
No NOTAM is currently available for this location.
Forecast Area
PAIK - Kiana, Alaska
Updated at 5:01 AM GMT op 26 oktober 2014 (9:01 PM AKDT):
No NOTAM is currently available for this location.
Aviation Weather Maps